Crystal Cutler — WDF6034 — position and weather

sailwx.info

Track history (hours):
 
Tides and Currents Weather Stations Pressure Air Temp Water Temp Dewpoint Dewpoint Depression Visibility Wind Speed Wind Dir Waves Ship Positions

Crystal Cutler

Owner: Poling & Cutler Marine Transportation, LLC, East Brunswick, NJ. More information available from US FCC via Universal Licensing System and Coast Guard Vessel Documentation Center.

Last reported at 2017-Dec-11 16:49 UTC. Time now 2017-Dec-13 14:37 UTC.
Position N 40°44' W 073°56'.

Length 23 m.

Type: Towing. MMSI: 367469910.

Date/timePositionNaut miles runAvg speedWind from/ knotsBaromVisibWave heightAir tempDewpointWater temp
2017-Dec-11 16:49N 40°44' W 073°56'0 0.0
2017-Dec-11 16:28N 40°44' W 073°56'0 0.0
2017-Dec-11 15:58N 40°44' W 073°56'0 0.0
2017-Dec-11 15:28N 40°44' W 073°56'0 0.0
2017-Dec-11 14:58N 40°44' W 073°56'0 0.0
2017-Dec-11 14:13N 40°44' W 073°56'0 0.0
2017-Dec-11 13:52N 40°44' W 073°56'0 0.0
2017-Dec-11 13:25N 40°44' W 073°56'0 0.0
2017-Dec-11 12:52N 40°44' W 073°56'0 0.0
2017-Dec-11 12:28N 40°44' W 073°56'0 0.0
2017-Dec-11 11:58N 40°44' W 073°56'0 0.0
2017-Dec-11 11:28N 40°44' W 073°56'0 0.0
2017-Dec-11 10:46N 40°44' W 073°56'0 0.0
2017-Dec-11 10:28N 40°44' W 073°56'0 0.0
2017-Dec-11 09:52N 40°44' W 073°56'0 0.0
2017-Dec-11 09:25N 40°44' W 073°56'0 0.0
2017-Dec-11 08:49N 40°44' W 073°56'0 0.0
2017-Dec-11 08:25N 40°44' W 073°56'0 0.0
2017-Dec-11 07:55N 40°44' W 073°56'1 1.2
2017-Dec-11 07:29N 40°44' W 073°56'1 3.1
2017-Dec-11 07:00N 40°44' W 073°57'3 6.2
2017-Dec-11 06:30N 40°42' W 073°60'4 7.9
2017-Dec-11 06:00N 40°39' W 074°04'3 6.3
2017-Dec-11 05:30N 40°39' W 074°08'3 6.2
2017-Dec-11 05:00N 40°38' W 074°12'4 7.2
2017-Dec-11 04:29N 40°35' W 074°13'7 0.2
2017-Dec-09 10:56N 40°30' W 074°06'3 7.3
2017-Dec-09 10:29N 40°32' W 074°02'3 6.5
2017-Dec-09 10:00N 40°34' W 073°59'4 7.9
2017-Dec-09 09:30N 40°34' W 073°54'4 8.1
2017-Dec-09 08:59N 40°36' W 073°48'4 1.2
2017-Dec-09 06:09N 40°38' W 073°45'0 0.0
2017-Dec-09 05:51N 40°38' W 073°45'0 0.0
2017-Dec-08 17:23N 40°38' W 073°45'1 0.6
2017-Dec-08 16:23N 40°38' W 073°46'1 0.6
2017-Dec-08 14:48N 40°37' W 073°46'1 3.5
2017-Dec-08 14:26N 40°36' W 073°48'2 4.8
2017-Dec-08 13:57N 40°35' W 073°50'4 8.3
2017-Dec-08 13:28N 40°34' W 073°55'3 7.1
2017-Dec-08 12:59N 40°34' W 073°60'3 5.4
2017-Dec-08 12:30N 40°33' W 074°03'8 0.6
2017-Dec-07 21:51N 40°33' W 074°14'2 6.8
2017-Dec-07 21:30N 40°36' W 074°12'3 7.0
2017-Dec-07 21:00N 40°39' W 074°11'3 6.5
2017-Dec-07 20:29N 40°39' W 074°06'3 6.2
2017-Dec-07 20:00N 40°40' W 074°03'4 8.9
2017-Dec-07 19:30N 40°43' W 073°58'2 2.6
2017-Dec-07 18:52N 40°44' W 073°56'0 0.0
2017-Dec-07 18:25N 40°44' W 073°56'0 0.0
2017-Dec-07 17:37N 40°44' W 073°56'0 0.0
2017-Dec-07 15:07N 40°44' W 073°56'0 0.0
2017-Dec-07 14:37N 40°44' W 073°56'0 0.0
2017-Dec-07 14:28N 40°44' W 073°56'0 0.0
2017-Dec-07 13:58N 40°44' W 073°56'0 0.0
2017-Dec-07 13:25N 40°44' W 073°56'0 0.0
2017-Dec-07 12:49N 40°44' W 073°56'0 0.0
2017-Dec-07 11:49N 40°44' W 073°56'0 0.0
2017-Dec-07 11:28N 40°44' W 073°56'0 0.0
2017-Dec-07 10:55N 40°44' W 073°56'0 0.0
2017-Dec-07 10:25N 40°44' W 073°56'0 0.0
2017-Dec-07 09:49N 40°44' W 073°56'0 0.0
2017-Dec-07 09:25N 40°44' W 073°56'0 0.0
2017-Dec-07 08:58N 40°44' W 073°56'0 0.0
2017-Dec-07 08:10N 40°44' W 073°56'0 0.0
2017-Dec-07 07:58N 40°44' W 073°56'0 0.0
2017-Dec-07 07:25N 40°44' W 073°56'0 0.0
2017-Dec-07 06:58N 40°44' W 073°56'0 0.0
2017-Dec-07 06:25N 40°44' W 073°56'0 0.0
2017-Dec-07 05:55N 40°44' W 073°56'0 0.3
2017-Dec-07 05:29N 40°44' W 073°56'0 0.1
2017-Dec-07 04:59N 40°44' W 073°56'2 3.7
2017-Dec-07 04:31N 40°43' W 073°58'4 8.2
2017-Dec-07 04:01N 40°40' W 074°02'4 7.5
2017-Dec-07 03:29N 40°39' W 074°07'3 7.0
2017-Dec-07 02:59N 40°38' W 074°12'5 0.8
2017-Dec-06 20:37N 40°33' W 074°14'  
2017-Dec-04 10:30N 40°39' W 074°06'3 5.1
2017-Dec-04 10:00N 40°39' W 074°09'3 5.9
2017-Dec-04 09:30N 40°37' W 074°12'4 6.4
2017-Dec-04 08:53N 40°33' W 074°14'9 0.5
2017-Dec-03 16:32N 40°32' W 074°03'1 7.7
2017-Dec-03 16:28N 40°33' W 074°03'3 5.9
2017-Dec-03 15:56N 40°34' W 073°59'4 8.4
2017-Dec-03 15:28N 40°34' W 073°54'4 8.6
2017-Dec-03 14:58N 40°36' W 073°48'3 5.9
2017-Dec-03 14:24N 40°38' W 073°45'0 0.0
2017-Dec-03 06:10N 40°38' W 073°45'0 0.0
2017-Dec-03 04:28N 40°38' W 073°45'0 0.0
2017-Dec-03 03:43N 40°38' W 073°45'0 0.0
2017-Dec-03 03:28N 40°38' W 073°45'0 0.0
2017-Dec-02 16:46N 40°38' W 073°45'0 0.0
2017-Dec-02 16:28N 40°38' W 073°45'0 0.0
2017-Dec-02 15:37N 40°38' W 073°45'0 0.0
2017-Dec-02 03:55N 40°38' W 073°45'  
Track history (hours):
 
Tides and Currents Weather Stations Pressure Air Temp Water Temp Dewpoint Dewpoint Depression Visibility Wind Speed Wind Dir Waves Ship Positions

Crystal Cutler

Owner: Poling & Cutler Marine Transportation, LLC, East Brunswick, NJ. More information available from US FCC via Universal Licensing System and Coast Guard Vessel Documentation Center.

Last reported at 2017-Dec-11 16:49 UTC. Time now 2017-Dec-13 14:37 UTC.
Position N 40°44' W 073°56'.

Length 23 m.

Type: Towing. MMSI: 367469910.

Date/timePositionNaut miles runAvg speedWind from/ knotsBaromVisibWave heightAir tempDewpointWater temp
2017-Dec-11 16:49N 40°44' W 073°56'0 0.0
2017-Dec-11 16:28N 40°44' W 073°56'0 0.0
2017-Dec-11 15:58N 40°44' W 073°56'0 0.0
2017-Dec-11 15:28N 40°44' W 073°56'0 0.0
2017-Dec-11 14:58N 40°44' W 073°56'0 0.0
2017-Dec-11 14:13N 40°44' W 073°56'0 0.0
2017-Dec-11 13:52N 40°44' W 073°56'0 0.0
2017-Dec-11 13:25N 40°44' W 073°56'0 0.0
2017-Dec-11 12:52N 40°44' W 073°56'0 0.0
2017-Dec-11 12:28N 40°44' W 073°56'0 0.0
2017-Dec-11 11:58N 40°44' W 073°56'0 0.0
2017-Dec-11 11:28N 40°44' W 073°56'0 0.0
2017-Dec-11 10:46N 40°44' W 073°56'0 0.0
2017-Dec-11 10:28N 40°44' W 073°56'0 0.0
2017-Dec-11 09:52N 40°44' W 073°56'0 0.0
2017-Dec-11 09:25N 40°44' W 073°56'0 0.0
2017-Dec-11 08:49N 40°44' W 073°56'0 0.0
2017-Dec-11 08:25N 40°44' W 073°56'0 0.0
2017-Dec-11 07:55N 40°44' W 073°56'1 1.2
2017-Dec-11 07:29N 40°44' W 073°56'1 3.1
2017-Dec-11 07:00N 40°44' W 073°57'3 6.2
2017-Dec-11 06:30N 40°42' W 073°60'4 7.9
2017-Dec-11 06:00N 40°39' W 074°04'3 6.3
2017-Dec-11 05:30N 40°39' W 074°08'3 6.2
2017-Dec-11 05:00N 40°38' W 074°12'4 7.2
2017-Dec-11 04:29N 40°35' W 074°13'7 0.2
2017-Dec-09 10:56N 40°30' W 074°06'3 7.3
2017-Dec-09 10:29N 40°32' W 074°02'3 6.5
2017-Dec-09 10:00N 40°34' W 073°59'4 7.9
2017-Dec-09 09:30N 40°34' W 073°54'4 8.1
2017-Dec-09 08:59N 40°36' W 073°48'4 1.2
2017-Dec-09 06:09N 40°38' W 073°45'0 0.0
2017-Dec-09 05:51N 40°38' W 073°45'0 0.0
2017-Dec-08 17:23N 40°38' W 073°45'1 0.6
2017-Dec-08 16:23N 40°38' W 073°46'1 0.6
2017-Dec-08 14:48N 40°37' W 073°46'1 3.5
2017-Dec-08 14:26N 40°36' W 073°48'2 4.8
2017-Dec-08 13:57N 40°35' W 073°50'4 8.3
2017-Dec-08 13:28N 40°34' W 073°55'3 7.1
2017-Dec-08 12:59N 40°34' W 073°60'3 5.4
2017-Dec-08 12:30N 40°33' W 074°03'8 0.6
2017-Dec-07 21:51N 40°33' W 074°14'2 6.8
2017-Dec-07 21:30N 40°36' W 074°12'3 7.0
2017-Dec-07 21:00N 40°39' W 074°11'3 6.5
2017-Dec-07 20:29N 40°39' W 074°06'3 6.2
2017-Dec-07 20:00N 40°40' W 074°03'4 8.9
2017-Dec-07 19:30N 40°43' W 073°58'2 2.6
2017-Dec-07 18:52N 40°44' W 073°56'0 0.0
2017-Dec-07 18:25N 40°44' W 073°56'0 0.0
2017-Dec-07 17:37N 40°44' W 073°56'0 0.0
2017-Dec-07 15:07N 40°44' W 073°56'0 0.0
2017-Dec-07 14:37N 40°44' W 073°56'0 0.0
2017-Dec-07 14:28N 40°44' W 073°56'0 0.0
2017-Dec-07 13:58N 40°44' W 073°56'0 0.0
2017-Dec-07 13:25N 40°44' W 073°56'0 0.0
2017-Dec-07 12:49N 40°44' W 073°56'0 0.0
2017-Dec-07 11:49N 40°44' W 073°56'0 0.0
2017-Dec-07 11:28N 40°44' W 073°56'0 0.0
2017-Dec-07 10:55N 40°44' W 073°56'0 0.0
2017-Dec-07 10:25N 40°44' W 073°56'0 0.0
2017-Dec-07 09:49N 40°44' W 073°56'0 0.0
2017-Dec-07 09:25N 40°44' W 073°56'0 0.0
2017-Dec-07 08:58N 40°44' W 073°56'0 0.0
2017-Dec-07 08:10N 40°44' W 073°56'0 0.0
2017-Dec-07 07:58N 40°44' W 073°56'0 0.0
2017-Dec-07 07:25N 40°44' W 073°56'0 0.0
2017-Dec-07 06:58N 40°44' W 073°56'0 0.0
2017-Dec-07 06:25N 40°44' W 073°56'0 0.0
2017-Dec-07 05:55N 40°44' W 073°56'0 0.3
2017-Dec-07 05:29N 40°44' W 073°56'0 0.1
2017-Dec-07 04:59N 40°44' W 073°56'2 3.7
2017-Dec-07 04:31N 40°43' W 073°58'4 8.2
2017-Dec-07 04:01N 40°40' W 074°02'4 7.5
2017-Dec-07 03:29N 40°39' W 074°07'3 7.0
2017-Dec-07 02:59N 40°38' W 074°12'5 0.8
2017-Dec-06 20:37N 40°33' W 074°14'  
2017-Dec-04 10:30N 40°39' W 074°06'3 5.1
2017-Dec-04 10:00N 40°39' W 074°09'3 5.9
2017-Dec-04 09:30N 40°37' W 074°12'4 6.4
2017-Dec-04 08:53N 40°33' W 074°14'9 0.5
2017-Dec-03 16:32N 40°32' W 074°03'1 7.7
2017-Dec-03 16:28N 40°33' W 074°03'3 5.9
2017-Dec-03 15:56N 40°34' W 073°59'4 8.4
2017-Dec-03 15:28N 40°34' W 073°54'4 8.6
2017-Dec-03 14:58N 40°36' W 073°48'3 5.9
2017-Dec-03 14:24N 40°38' W 073°45'0 0.0
2017-Dec-03 06:10N 40°38' W 073°45'0 0.0
2017-Dec-03 04:28N 40°38' W 073°45'0 0.0
2017-Dec-03 03:43N 40°38' W 073°45'0 0.0
2017-Dec-03 03:28N 40°38' W 073°45'0 0.0
2017-Dec-02 16:46N 40°38' W 073°45'0 0.0
2017-Dec-02 16:28N 40°38' W 073°45'0 0.0
2017-Dec-02 15:37N 40°38' W 073°45'0 0.0
2017-Dec-02 03:55N 40°38' W 073°45'  

Dump ship's entire track history